San Esteban, Argentina
Current Conditions -  °F | °C
As of 6:00 PM on Friday 24 Oct 2014 (Local Time) from SACO Reporting Station
Few Clouds Few Clouds  
Wind Chill: 32°   Ceiling: Unl
Heat Index: 32°   Visibility: 6mi
Dew Point: 14°   Wind: 14mph
Humidity: 33%   Direction: 70°ENE
Pressure: 29.91"   Gusts: NA
Location:  30.92°S, 64.55°W
Report Text: SACO 242100Z 07012KT 9999 FEW030 32/14 Q1013
Loading
Personal Weather Stations






























Interactive Weather Map
Tropical Storm Tracking
New forecast layout! Learn more

10-Day Weather Forecast

Advertisements
Track Severe Weather on mobile